LFLB/CMF METAR and TAF weather

Enter ICAO airport designator
Station Type Date Time Source
LFLB METAR 2022/01/26 14:00 UTC NOAA

LFLB 261400Z AUTO 01004KT 290V040 CAVOK 05/M00 Q1031 NOSIG


Station Type Date Time Source
LFLB Decoded METAR 2022/01/26 14:00 UTC NOAA

Chambery / Aix-Les-Bains, France (LFLB) 45-39N 005-53E 239M
Jan 26, 2022 - 09:00 AM EST / 2022.01.26 1400 UTC
Wind: from the N (010 degrees) at 5 MPH (4 KT) (direction variable):0
Visibility: greater than 7 mile(s):0
Temperature: 41 F (5 C)
Dew Point: 32 F (0 C)
Relative Humidity: 70%
Pressure (altimeter): 30.45 in. Hg (1031 hPa)
ob: LFLB 261400Z AUTO 01004KT 290V040 CAVOK 05/M00 Q1031 NOSIG
cycle: 14

Station Type Date Time Source
LFLB TAF 2022/01/26 09:21 UTC NOAA

TAF TAF LFLB 260800Z 2609/2709 VRB02KT 7000 NSC
TEMPO 2609/2610 3000 BR PROB40
TEMPO 2609/2610 0800 BCFG BKN002
TEMPO 2620/2709 3000 BR PROB30
TEMPO 2702/2708 0400 FZFG VV///

Example: see airport list